createdAt,value
2022-12-01T00:04:24.817Z,104034.69
2022-12-01T00:09:46.650Z,104024.47
2022-12-01T00:14:55.311Z,104018.56
2022-12-01T00:19:59.857Z,104026.25
2022-12-01T00:25:02.973Z,104017.69
2022-12-01T00:30:08.699Z,104014.91
2022-12-01T00:35:12.410Z,104015.88
2022-12-01T00:40:15.389Z,104021.75
2022-12-01T00:45:18.531Z,104013.78
2022-12-01T00:50:21.569Z,104019.50
2022-12-01T00:55:24.501Z,104028.91
2022-12-01T01:00:27.597Z,104017.06
2022-12-01T01:05:31.565Z,104009.31
2022-12-01T01:10:34.668Z,104012.38
2022-12-01T01:15:37.858Z,104009.13
2022-12-01T01:20:40.811Z,104000.59
2022-12-01T01:25:43.623Z,103995.41
2022-12-01T01:30:47.348Z,103989.47
2022-12-01T01:35:50.377Z,103976.13
2022-12-01T01:40:53.293Z,103979.75
2022-12-01T01:45:56.416Z,103993.72
2022-12-01T01:50:59.576Z,104009.69
2022-12-01T01:56:03.695Z,104003.50
2022-12-01T02:01:07.443Z,104013.31
2022-12-01T02:06:11.661Z,104011.22
2022-12-01T02:11:33.754Z,103942.84
2022-12-01T02:16:51.159Z,103989.81
2022-12-01T02:22:05.996Z,103998.22
2022-12-01T02:27:21.263Z,103994.84
2022-12-01T02:32:33.656Z,104019.66
2022-12-01T02:37:58.413Z,104022.63
2022-12-01T02:43:08.229Z,104021.34
2022-12-01T02:48:39.292Z,104021.34
2022-12-01T02:53:42.665Z,104018.25
2022-12-01T02:58:45.527Z,104002.28
2022-12-01T03:04:09.456Z,104050.63
2022-12-01T03:09:25.101Z,104043.47
2022-12-01T03:15:01.904Z,104036.06
2022-12-01T03:20:25.260Z,103995.88
2022-12-01T03:25:28.738Z,104042.00
2022-12-01T03:30:36.022Z,104033.81
2022-12-01T03:35:50.356Z,104052.47
2022-12-01T03:41:01.902Z,104039.81
2022-12-01T03:46:14.051Z,104033.59
2022-12-01T03:51:27.255Z,103987.78
2022-12-01T03:56:36.836Z,104056.50
2022-12-01T04:01:40.106Z,104032.69
2022-12-01T04:06:46.933Z,104057.91
2022-12-01T04:12:08.487Z,104057.53
2022-12-01T04:17:11.535Z,103973.84
2022-12-01T04:22:14.466Z,104056.50
2022-12-01T04:27:17.578Z,104059.00
2022-12-01T04:32:20.772Z,104054.81
2022-12-01T04:37:23.758Z,104065.97
2022-12-01T04:42:26.795Z,104064.03
2022-12-01T04:47:29.735Z,104072.91
2022-12-01T04:52:35.407Z,104075.00
2022-12-01T04:57:39.779Z,104077.72
2022-12-01T05:02:43.925Z,104024.72
2022-12-01T05:07:46.957Z,104063.88
2022-12-01T05:12:50.182Z,104086.06
2022-12-01T05:17:53.132Z,104095.97
2022-12-01T05:23:08.263Z,104061.00
2022-12-01T05:28:13.936Z,104099.97
2022-12-01T05:33:17.692Z,104107.81
2022-12-01T05:38:20.914Z,104081.84
2022-12-01T05:43:28.934Z,104098.75
2022-12-01T05:48:32.747Z,104091.84
2022-12-01T05:53:35.683Z,104105.31
2022-12-01T05:58:38.631Z,104104.56
2022-12-01T06:03:43.646Z,104063.38
2022-12-01T06:08:46.689Z,104101.78
2022-12-01T06:13:49.878Z,104061.47
2022-12-01T06:18:52.773Z,104100.81
2022-12-01T06:23:55.733Z,104096.38
2022-12-01T06:28:58.687Z,104098.66
2022-12-01T06:34:01.571Z,104095.38
2022-12-01T06:39:10.336Z,104091.91
2022-12-01T06:44:13.595Z,104095.53
2022-12-01T06:49:16.770Z,104061.00
2022-12-01T06:54:19.780Z,104100.94
2022-12-01T06:59:22.765Z,104087.91
2022-12-01T07:04:26.221Z,104076.56
2022-12-01T07:09:29.359Z,104057.16
2022-12-01T07:14:32.580Z,104057.41
2022-12-01T07:19:36.137Z,104029.50
2022-12-01T07:24:39.047Z,104059.75
2022-12-01T07:29:41.981Z,104052.69
2022-12-01T07:34:44.998Z,104001.81
2022-12-01T07:39:48.218Z,104025.56
2022-12-01T07:44:51.371Z,104046.88
2022-12-01T07:49:54.245Z,104042.91
2022-12-01T07:54:57.159Z,104041.00
2022-12-01T08:00:00.106Z,104027.22
2022-12-01T08:05:03.126Z,104029.28
2022-12-01T08:10:06.482Z,104008.91
2022-12-01T08:15:10.208Z,104014.47
2022-12-01T08:20:13.361Z,104005.69
2022-12-01T08:25:16.310Z,104006.69
2022-12-01T08:30:19.398Z,103989.94
2022-12-01T08:35:22.397Z,103993.88
2022-12-01T08:40:25.292Z,103994.09
2022-12-01T08:45:28.272Z,103990.28
2022-12-01T08:50:31.292Z,103981.78
2022-12-01T08:55:34.236Z,103986.00
2022-12-01T09:00:37.289Z,103974.31
2022-12-01T09:05:40.692Z,103969.66
2022-12-01T09:10:52.397Z,103966.88
2022-12-01T09:16:00.294Z,103967.22
2022-12-01T09:21:20.436Z,103950.13
2022-12-01T09:26:23.690Z,103953.66
2022-12-01T09:31:27.266Z,103951.59
2022-12-01T09:36:32.613Z,103910.75
2022-12-01T09:41:45.037Z,103944.88
2022-12-01T09:46:53.452Z,103934.94
2022-12-01T09:51:56.387Z,103922.59
2022-12-01T09:57:00.550Z,103846.78
2022-12-01T10:02:11.815Z,103903.00
2022-12-01T10:07:27.658Z,103888.44
2022-12-01T10:12:36.704Z,103933.94
2022-12-01T10:18:18.012Z,103920.13
2022-12-01T10:23:44.670Z,103916.00
2022-12-01T10:28:58.395Z,103915.47
2022-12-01T10:34:08.382Z,103918.72
2022-12-01T10:39:29.492Z,103907.66
2022-12-01T10:44:33.172Z,103907.69
2022-12-01T10:49:41.172Z,103904.16
2022-12-01T10:54:44.137Z,103898.50
2022-12-01T10:59:59.210Z,103907.84
2022-12-01T11:05:07.579Z,103890.28
2022-12-01T11:10:18.985Z,103919.34
2022-12-01T11:15:29.232Z,103915.22
2022-12-01T11:20:38.753Z,103893.22
2022-12-01T11:25:41.733Z,103906.22
2022-12-01T11:30:44.753Z,103875.34
2022-12-01T11:35:49.932Z,103884.56
2022-12-01T11:40:55.618Z,103870.44
2022-12-01T11:46:02.796Z,103898.19
2022-12-01T11:51:27.365Z,103853.47
2022-12-01T11:56:31.604Z,103858.53
2022-12-01T12:01:49.288Z,103891.72
2022-12-01T12:07:02.994Z,103865.25
2022-12-01T12:12:20.984Z,103900.81
2022-12-01T12:17:35.788Z,103887.69
2022-12-01T12:22:54.981Z,103865.97
2022-12-01T12:28:33.443Z,103854.97
2022-12-01T12:34:13.654Z,103888.50
2022-12-01T12:39:19.174Z,103887.50
2022-12-01T12:44:42.582Z,103896.34
2022-12-01T12:49:57.706Z,103894.50
2022-12-01T12:55:12.143Z,103876.66
2022-12-01T13:00:19.554Z,103863.78
2022-12-01T13:05:45.901Z,103894.16
2022-12-01T13:11:03.371Z,103892.22
2022-12-01T13:16:13.567Z,103891.25
2022-12-01T13:21:21.706Z,103910.31
2022-12-01T13:26:25.151Z,103912.69
2022-12-01T13:31:28.319Z,103908.31
2022-12-01T13:36:49.472Z,103859.50
2022-12-01T13:42:06.353Z,103908.75
2022-12-01T13:47:12.449Z,103900.53
2022-12-01T13:52:27.054Z,103892.81
2022-12-01T13:57:33.369Z,103907.25
2022-12-01T14:02:37.039Z,103909.53
2022-12-01T14:07:40.812Z,103908.38
2022-12-01T14:12:46.456Z,103899.59
2022-12-01T14:18:00.906Z,103909.94
2022-12-01T14:23:24.591Z,103877.66
2022-12-01T14:28:55.679Z,103903.97
2022-12-01T14:34:03.034Z,103908.09
2022-12-01T14:39:24.324Z,103905.94
2022-12-01T14:44:44.574Z,103920.59
2022-12-01T14:49:53.941Z,103900.25
2022-12-01T14:55:02.304Z,103921.88
2022-12-01T15:00:15.234Z,103908.34
2022-12-01T15:05:20.730Z,103914.69
2022-12-01T15:10:35.468Z,103916.25
2022-12-01T15:15:38.242Z,103914.25
2022-12-01T15:20:46.340Z,103917.53
2022-12-01T15:25:50.819Z,103927.13
2022-12-01T15:30:55.579Z,103921.16
2022-12-01T15:36:00.126Z,103927.94
2022-12-01T15:46:34.683Z,103922.41
2022-12-01T15:51:37.791Z,103895.06
2022-12-01T15:56:42.090Z,103934.13
2022-12-01T16:01:45.812Z,103935.53
2022-12-01T16:07:08.600Z,103938.44
2022-12-01T16:12:17.933Z,103932.94
2022-12-01T16:17:21.588Z,103904.69
2022-12-01T16:22:25.426Z,103892.28
2022-12-01T16:27:30.638Z,103926.19
2022-12-01T16:32:41.043Z,103921.25
2022-12-01T16:37:44.083Z,103925.34
2022-12-01T16:42:48.796Z,103924.13
2022-12-01T16:47:51.680Z,103934.47
2022-12-01T16:52:54.632Z,103946.56
2022-12-01T16:57:57.923Z,103933.19
2022-12-01T17:03:01.547Z,103887.91
2022-12-01T17:08:04.905Z,103938.69
2022-12-01T17:13:07.880Z,103877.69
2022-12-01T17:18:11.711Z,103885.88
2022-12-01T17:23:14.645Z,103903.47
2022-12-01T17:28:18.142Z,103914.81
2022-12-01T17:33:21.357Z,103877.63
2022-12-01T17:38:24.416Z,103891.66
2022-12-01T17:43:27.316Z,103935.69
2022-12-01T17:48:30.446Z,103923.22
2022-12-01T17:53:33.728Z,103924.47
2022-12-01T17:58:37.385Z,103875.66
2022-12-01T18:03:40.307Z,103918.72
2022-12-01T18:08:43.755Z,103917.94
2022-12-01T18:13:49.643Z,103919.38
2022-12-01T18:18:53.851Z,103876.63
2022-12-01T18:23:59.782Z,103873.00
2022-12-01T18:29:06.485Z,103910.72
2022-12-01T18:34:11.235Z,103900.19
2022-12-01T18:39:14.369Z,103904.63
2022-12-01T18:44:17.508Z,103919.69
2022-12-01T18:49:20.619Z,103915.88
2022-12-01T18:54:23.524Z,103927.50
2022-12-01T18:59:27.254Z,103920.53
2022-12-01T19:04:30.876Z,103882.28
2022-12-01T19:09:34.022Z,103893.50
2022-12-01T19:14:37.043Z,103915.47
2022-12-01T19:19:40.057Z,103910.41
2022-12-01T19:24:49.876Z,103910.34
2022-12-01T19:29:54.230Z,103881.09
2022-12-01T19:34:57.410Z,103912.22
2022-12-01T19:40:00.398Z,103913.84
2022-12-01T19:45:04.134Z,103913.78
2022-12-01T19:50:07.896Z,103903.50
2022-12-01T19:55:11.107Z,103911.75
2022-12-01T20:00:14.288Z,103909.72
2022-12-01T20:05:17.290Z,103907.22
2022-12-01T20:10:20.727Z,103894.50
2022-12-01T20:15:23.650Z,103905.13
2022-12-01T20:20:26.763Z,103866.28
2022-12-01T20:25:29.712Z,103907.94
2022-12-01T20:30:32.559Z,103910.97
2022-12-01T20:35:35.800Z,103876.81
2022-12-01T20:40:38.698Z,103903.09
2022-12-01T20:45:43.019Z,103874.84
2022-12-01T20:50:46.020Z,103899.44
2022-12-01T20:55:49.115Z,103902.03
2022-12-01T21:00:52.041Z,103905.03
2022-12-01T21:05:55.028Z,103891.16
2022-12-01T21:10:58.388Z,103889.59
2022-12-01T21:16:06.939Z,103898.88
2022-12-01T21:21:22.740Z,103897.44
2022-12-01T21:26:26.184Z,103893.56
2022-12-01T21:31:29.422Z,103886.22
2022-12-01T21:36:32.575Z,103885.00
2022-12-01T21:41:35.735Z,103891.69
2022-12-01T21:46:41.660Z,103900.25
2022-12-01T21:51:45.068Z,103893.88
2022-12-01T21:56:55.697Z,103885.31
2022-12-01T22:01:58.731Z,103842.34
2022-12-01T22:07:01.624Z,103883.09
2022-12-01T22:12:07.642Z,103886.47
2022-12-01T22:17:10.526Z,103893.38
2022-12-01T22:22:15.951Z,103885.94
2022-12-01T22:27:38.456Z,103842.50
2022-12-01T22:32:59.801Z,103840.13
2022-12-01T22:38:09.035Z,103841.50
2022-12-01T22:43:18.040Z,103834.22
2022-12-01T22:48:44.250Z,103876.53
2022-12-01T22:53:47.662Z,103877.75
2022-12-01T22:58:50.864Z,103873.88
2022-12-01T23:04:00.268Z,103883.00
2022-12-01T23:09:03.899Z,103886.19
2022-12-01T23:14:13.990Z,103893.53
2022-12-01T23:19:17.137Z,103852.06
2022-12-01T23:24:20.135Z,103884.28
2022-12-01T23:29:23.562Z,103890.44
2022-12-01T23:34:26.641Z,103876.09
2022-12-01T23:39:34.738Z,103869.22
2022-12-01T23:44:42.698Z,103878.19
2022-12-01T23:49:47.133Z,103879.00
2022-12-01T23:54:50.411Z,103876.66
